Map

Track Data

SID SEASON NUMBER BASIN SUBBASIN NAME ISO_TIME NATURE LAT LON WMO_WIND WMO_PRES WMO_AGENCY TRACK_TYPE DIST2LAND LANDFALL IFLAG USA_AGENCY USA_ATCF_ID USA_LAT USA_LON USA_RECORD USA_STATUS USA_WIND USA_PRES USA_SSHS USA_R34_NE USA_R34_SE USA_R34_SW USA_R34_NW USA_R50_NE USA_R50_SE USA_R50_SW USA_R50_NW USA_R64_NE USA_R64_SE USA_R64_SW USA_R64_NW USA_POCI USA_ROCI USA_RMW USA_EYE TOKYO_LAT TOKYO_LON TOKYO_GRADE TOKYO_WIND TOKYO_PRES TOKYO_R50_DIR TOKYO_R50_LONG TOKYO_R50_SHORT TOKYO_R30_DIR TOKYO_R30_LONG TOKYO_R30_SHORT TOKYO_LAND CMA_LAT CMA_LON CMA_CAT CMA_WIND CMA_PRES HKO_LAT HKO_LON HKO_CAT HKO_WIND HKO_PRES NEWDELHI_LAT NEWDELHI_LON NEWDELHI_GRADE NEWDELHI_WIND NEWDELHI_PRES NEWDELHI_CI NEWDELHI_DP NEWDELHI_POCI REUNION_LAT REUNION_LON REUNION_TYPE REUNION_WIND REUNION_PRES REUNION_TNUM REUNION_CI REUNION_RMW REUNION_R34_NE REUNION_R34_SE REUNION_R34_SW REUNION_R34_NW REUNION_R50_NE REUNION_R50_SE REUNION_R50_SW REUNION_R50_NW REUNION_R64_NE REUNION_R64_SE REUNION_R64_SW REUNION_R64_NW BOM_LAT BOM_LON BOM_TYPE BOM_WIND BOM_PRES BOM_TNUM BOM_CI BOM_RMW BOM_R34_NE BOM_R34_SE BOM_R34_SW BOM_R34_NW BOM_R50_NE BOM_R50_SE BOM_R50_SW BOM_R50_NW BOM_R64_NE BOM_R64_SE BOM_R64_SW BOM_R64_NW BOM_ROCI BOM_POCI BOM_EYE BOM_POS_METHOD BOM_PRES_METHOD NADI_LAT NADI_LON NADI_CAT NADI_WIND NADI_PRES WELLINGTON_LAT WELLINGTON_LON WELLINGTON_WIND WELLINGTON_PRES DS824_LAT DS824_LON DS824_STAGE DS824_WIND DS824_PRES TD9636_LAT TD9636_LON TD9636_STAGE TD9636_WIND TD9636_PRES TD9635_LAT TD9635_LON TD9635_WIND TD9635_PRES TD9635_ROCI NEUMANN_LAT NEUMANN_LON NEUMANN_CLASS NEUMANN_WIND NEUMANN_PRES MLC_LAT MLC_LON MLC_CLASS MLC_WIND MLC_PRES USA_GUST BOM_GUST BOM_GUST_PER REUNION_GUST REUNION_GUST_PER USA_SEAHGT USA_SEARAD_NE USA_SEARAD_SE USA_SEARAD_SW USA_SEARAD_NW STORM_SPEED STORM_DIR
1861355S05087 1862 36 SI MM NOT_NAMED 1861-12-21 06:00:00 NR -5.40000 86.8000 main 1343 1343 _____O________ -1 -5.40000 86.8000 99 9.90000 7 226
1861355S05087 1862 36 SI MM NOT_NAMED 1861-12-21 09:00:00 NR -5.64123 86.5505 main 1375 1375 _____P________ -1 -5.64123 86.5505 99 7 226
1861355S05087 1862 36 SI MM NOT_NAMED 1861-12-21 12:00:00 NR -5.88323 86.3020 main 1422 1422 _____P________ -1 -5.88323 86.3020 99 7 225
1861355S05087 1862 36 SI MM NOT_NAMED 1861-12-21 15:00:00 NR -6.12688 86.0557 main 1453 1453 _____P________ -1 -6.12688 86.0557 99 7 225
1861355S05087 1862 36 SI MM NOT_NAMED 1861-12-21 18:00:00 NR -6.37301 85.8128 main 1494 1490 _____P________ -1 -6.37301 85.8128 99 7 224
1861355S05087 1862 36 SI MM NOT_NAMED 1861-12-21 21:00:00 NR -6.62251 85.5746 main 1506 1506 _____P________ -1 -6.62251 85.5746 99 7 223
1861355S05087 1862 36 SI MM NOT_NAMED 1861-12-22 00:00:00 NR -6.87625 85.3423 main 1526 1526 _____P________ -1 -6.87625 85.3423 99 7 222
1861355S05087 1862 36 SI MM NOT_NAMED 1861-12-22 03:00:00 NR -7.13511 85.1170 main 1540 1540 _____P________ -1 -7.13511 85.1170 99 7 220
1861355S05087 1862 36 SI MM NOT_NAMED 1861-12-22 06:00:00 NR -7.40000 84.9000 main 1565 1565 _____O________ -1 -7.40000 84.9000 99 9.90000 7 218
1861355S05087 1862 36 SI MM NOT_NAMED 1861-12-22 09:00:00 NR -7.67114 84.6924 main 1590 1587 _____P________ -1 -7.67114 84.6924 99 7 216
1861355S05087 1862 36 SI MM NOT_NAMED 1861-12-22 12:00:00 NR -7.94608 84.4955 main 1605 1605 _____P________ -1 -7.94608 84.4955 99 7 215
1861355S05087 1862 36 SI MM NOT_NAMED 1861-12-22 15:00:00 NR -8.22168 84.3102 main 1632 1632 _____P________ -1 -8.22168 84.3102 99 7 213
1861355S05087 1862 36 SI MM NOT_NAMED 1861-12-22 18:00:00 NR -8.49482 84.1378 main 1659 1659 _____P________ -1 -8.49482 84.1378 99 6 211
1861355S05087 1862 36 SI MM NOT_NAMED 1861-12-22 21:00:00 NR -8.76236 83.9794 main 1689 1687 _____P________ -1 -8.76236 83.9794 99 6 210
1861355S05087 1862 36 SI MM NOT_NAMED 1861-12-23 00:00:00 NR -9.02117 83.8361 main 1706 1706 _____P________ -1 -9.02117 83.8361 99 6 208
1861355S05087 1862 36 SI MM NOT_NAMED 1861-12-23 03:00:00 NR -9.26809 83.7093 main 1737 1737 _____P________ -1 -9.26809 83.7093 99 5 206
1861355S05087 1862 36 SI MM NOT_NAMED 1861-12-23 06:00:00 NR -9.50000 83.6000 main 1757 1757 _____O________ -1 -9.50000 83.6000 99 9.90000 5 205
1861355S05087 1862 36 SI MM NOT_NAMED 1861-12-23 09:00:00 NR -9.70167 83.5021 main 1777 1777 _____P________ -1 -9.70167 83.5021 99 4 204
1861355S05087 1862 36 SI MM NOT_NAMED 1861-12-23 12:00:00 NR -9.88791 83.4227 main 1797 1797 _____P________ -1 -9.88791 83.4227 99 4 201
1861355S05087 1862 36 SI MM NOT_NAMED 1861-12-23 15:00:00 NR -10.0626 83.3592 main 1819 1817 _____P________ -1 -10.0626 83.3592 99 4 198
1861355S05087 1862 36 SI MM NOT_NAMED 1861-12-23 18:00:00 NR -10.2297 83.3095 main 1828 1828 _____P________ -1 -10.2297 83.3095 99 3 195
1861355S05087 1862 36 SI MM NOT_NAMED 1861-12-23 21:00:00 NR -10.3931 83.2710 main 1850 1850 _____P________ -1 -10.3931 83.2710 99 3 191
1861355S05087 1862 36 SI MM NOT_NAMED 1861-12-24 00:00:00 NR -10.5567 83.2416 main 1871 1871 _____P________ -1 -10.5567 83.2416 99 3 189
1861355S05087 1862 36 SI MM NOT_NAMED 1861-12-24 03:00:00 NR -10.7244 83.2187 main 1882 1882 _____P________ -1 -10.7244 83.2187 99 3 186
1861355S05087 1862 36 SI MM NOT_NAMED 1861-12-24 06:00:00 NR -10.9000 83.2000 main 1904 1904 _____O________ -1 -10.9000 83.2000 99 9.90000 3 189
1861355S05087 1862 36 SI MM NOT_NAMED 1861-12-24 09:00:00 NR -11.0604 83.1641 main 1926 1924 _____P________ -1 -11.0604 83.1641 99 3 191
1861355S05087 1862 36 SI MM NOT_NAMED 1861-12-24 12:00:00 NR -11.2224 83.1334 main 1935 1935 _____P________ -1 -11.2224 83.1334 99 3 191
1861355S05087 1862 36 SI MM NOT_NAMED 1861-12-24 15:00:00 NR -11.3926 83.1086 main 1958 1958 _____P________ -1 -11.3926 83.1086 99 4 187
1861355S05087 1862 36 SI MM NOT_NAMED 1861-12-24 18:00:00 NR -11.5778 83.0905 main 1980 1980 _____P________ -1 -11.5778 83.0905 99 4 186
1861355S05087 1862 36 SI MM NOT_NAMED 1861-12-24 21:00:00 NR -11.7844 83.0798 main 2002 2002 _____P________ -1 -11.7844 83.0798 99 4 184
1861355S05087 1862 36 SI MM NOT_NAMED 1861-12-25 00:00:00 NR -12.0193 83.0773 main 2024 2024 _____P________ -1 -12.0193 83.0773 99 5 177
1861355S05087 1862 36 SI MM NOT_NAMED 1861-12-25 03:00:00 NR -12.2889 83.0838 main 2057 2057 _____P________ -1 -12.2889 83.0838 99 6 0
1861355S05087 1862 36 SI MM NOT_NAMED 1861-12-25 06:00:00 NR -12.6000 83.1000 main 2091 2091 _____O________ -1 -12.6000 83.1000 99 9.90000 7 178
1861355S05087 1862 36 SI MM NOT_NAMED 1861-12-25 09:00:00 NR -12.9982 83.1264 main 2135 2135 _____P________ -1 -12.9982 83.1264 99 9 176
1861355S05087 1862 36 SI MM NOT_NAMED 1861-12-25 12:00:00 NR -13.4422 83.1635 main 2169 2169 _____P________ -1 -13.4422 83.1635 99 9 175
1861355S05087 1862 36 SI MM NOT_NAMED 1861-12-25 15:00:00 NR -13.9182 83.2092 main 2202 2202 _____P________ -1 -13.9182 83.2092 99 10 174
1861355S05087 1862 36 SI MM NOT_NAMED 1861-12-25 18:00:00 NR -14.4127 83.2616 main 2228 2228 _____P________ -1 -14.4127 83.2616 99 10 174
1861355S05087 1862 36 SI MM NOT_NAMED 1861-12-25 21:00:00 NR -14.9118 83.3189 main 2263 2263 _____P________ -1 -14.9118 83.3189 99 10 174
1861355S05087 1862 36 SI MM NOT_NAMED 1861-12-26 00:00:00 NR -15.4018 83.3791 main 2291 2291 _____P________ -1 -15.4018 83.3791 99 10 173
1861355S05087 1862 36 SI MM NOT_NAMED 1861-12-26 03:00:00 NR -15.8691 83.4401 main 2327 2319 _____P________ -1 -15.8691 83.4401 99 9 173
1861355S05087 1862 36 SI MM NOT_NAMED 1861-12-26 06:00:00 NR -16.3000 83.5000 main 2349 2349 _____O________ -1 -16.3000 83.5000 99 9.90000 8 172
1861355S05087 1862 36 SI MM NOT_NAMED 1861-12-26 09:00:00 NR -16.6842 83.5571 main 2372 2372 _____P________ -1 -16.6842 83.5571 99 7 172
1861355S05087 1862 36 SI MM NOT_NAMED 1861-12-26 12:00:00 NR -17.0246 83.6113 main 2395 2395 _____P________ -1 -17.0246 83.6113 99 7 171
1861355S05087 1862 36 SI MM NOT_NAMED 1861-12-26 15:00:00 NR -17.3276 83.6631 main 2411 2411 _____P________ -1 -17.3276 83.6631 99 6 170
1861355S05087 1862 36 SI MM NOT_NAMED 1861-12-26 18:00:00 NR -17.5995 83.7129 main 2435 2435 _____P________ -1 -17.5995 83.7129 99 5 169
1861355S05087 1862 36 SI MM NOT_NAMED 1861-12-26 21:00:00 NR -17.8464 83.7610 main 2444 2444 _____P________ -1 -17.8464 83.7610 99 5 170
1861355S05087 1862 36 SI MM NOT_NAMED 1861-12-27 00:00:00 NR -18.0746 83.8080 main 2468 2468 _____P________ -1 -18.0746 83.8080 99 5 169
1861355S05087 1862 36 SI MM NOT_NAMED 1861-12-27 03:00:00 NR -18.2904 83.8541 main 2477 2477 _____P________ -1 -18.2904 83.8541 99 4 168
1861355S05087 1862 36 SI MM NOT_NAMED 1861-12-27 06:00:00 NR -18.5000 83.9000 main 2493 _____O________ -1 -18.5000 83.9000 99 9.90000 4 170

About IBTrACS Database

This database is a web-friendly format of International Best Track Archive for Climate Stewardship (IBTrACS), a global best track data archive curated by NOAA dating back to 1842.

Updated: 2021-12-03